Time;durP1;ratioP1;P1;durP2;ratioP2;P2;SDS_P1;SDS_P2;PMS_P1;PMS_P2;Temp;Humidity;BMP_temperature;BMP_pressure;BME280_temperature;BME280_humidity;BME280_pressure;Samples;Min_cycle;Max_cycle;Signal;HPM_P1;HPM_P2
2022/07/17 00:02:00;;;;;;;4.10;2.10;;;;;;;14.21;63.16;94754.44;5045820;28;20271;-55
2022/07/17 00:04:44;;;;;;;7.13;1.67;;;;;;;14.15;63.62;94754.75;5050065;28;20231;-55
2022/07/17 00:07:28;;;;;;;2.97;1.83;;;;;;;14.15;63.54;94742.75;5052971;28;20303;-55
2022/07/17 00:10:12;;;;;;;2.60;1.90;;;;;;;14.11;63.61;94746.03;5046580;28;20197;-55
2022/07/17 00:12:56;;;;;;;3.70;1.90;;;;;;;14.01;63.82;94739.66;5051187;28;20232;-55
2022/07/17 00:15:40;;;;;;;2.13;1.93;;;;;;;14.06;63.54;94744.25;5045297;28;20217;-55
2022/07/17 00:18:24;;;;;;;2.10;1.90;;;;;;;14.05;63.58;94748.41;5050271;28;20201;-55
2022/07/17 00:21:08;;;;;;;8.33;2.50;;;;;;;14.07;63.59;94740.06;5050512;28;20205;-55
2022/07/17 00:23:52;;;;;;;3.30;2.00;;;;;;;14.03;63.45;94742.63;5043255;28;20709;-55
2022/07/17 00:26:36;;;;;;;7.00;3.40;;;;;;;14.03;63.79;94739.81;5045304;28;20202;-55
2022/07/17 00:29:20;;;;;;;2.17;1.90;;;;;;;14.03;63.71;94736.25;5050939;28;20208;-55
2022/07/17 00:32:04;;;;;;;4.33;2.30;;;;;;;13.94;63.87;94737.75;5047966;28;20573;-55
2022/07/17 00:34:49;;;;;;;3.13;1.90;;;;;;;13.99;63.85;94742.34;5050116;28;20283;-55
2022/07/17 00:37:45;;;;;;;3.67;2.40;;;;;;;13.95;64.25;94742.03;5050252;28;20276;-55
2022/07/17 00:40:29;;;;;;;3.07;1.80;;;;;;;13.80;64.80;94733.91;5048841;28;20616;-55
2022/07/17 00:43:14;;;;;;;2.70;2.00;;;;;;;13.73;65.17;94734.78;5050032;28;20264;-55
2022/07/17 00:46:00;;;;;;;2.33;2.07;;;;;;;13.59;65.53;94733.75;5047723;28;20194;-55
2022/07/17 00:48:44;;;;;;;2.03;1.87;;;;;;;13.54;65.68;94740.44;5049211;28;20270;-55
2022/07/17 00:51:28;;;;;;;4.17;2.60;;;;;;;13.64;65.26;94738.38;5053330;28;20344;-55
2022/07/17 00:54:14;;;;;;;5.27;2.57;;;;;;;13.74;65.18;94734.22;5043395;28;20205;-55
2022/07/17 00:57:00;;;;;;;2.03;1.60;;;;;;;13.69;65.48;94728.88;5049195;28;20209;-55
2022/07/17 00:59:45;;;;;;;9.20;2.93;;;;;;;13.66;65.34;94736.44;5040809;28;20634;-55
2022/07/17 01:02:28;;;;;;;4.07;2.67;;;;;;;13.43;65.90;94738.22;5043078;28;20233;-55
2022/07/17 01:05:13;;;;;;;5.17;2.13;;;;;;;13.33;66.61;94730.50;5047095;28;20256;-55
2022/07/17 01:07:57;;;;;;;4.10;2.33;;;;;;;13.27;66.96;94730.03;5045777;28;20201;-55
2022/07/17 01:10:41;;;;;;;15.43;5.03;;;;;;;13.25;66.80;94727.09;5044613;28;20248;-55
2022/07/17 01:13:26;;;;;;;4.13;2.30;;;;;;;13.24;67.06;94725.59;5040113;28;20304;-55
2022/07/17 01:16:11;;;;;;;2.87;2.17;;;;;;;13.22;67.11;94725.44;5049055;28;20600;-55
2022/07/17 01:18:56;;;;;;;2.77;2.10;;;;;;;13.20;67.10;94725.31;5050607;28;20283;-55
2022/07/17 01:21:42;;;;;;;4.50;2.20;;;;;;;13.17;67.11;94732.13;5042993;28;20267;-55
2022/07/17 01:24:27;;;;;;;9.03;3.17;;;;;;;13.12;67.14;94730.34;5048436;28;20669;-55
2022/07/17 01:27:11;;;;;;;4.03;2.50;;;;;;;12.93;67.66;94730.25;5050540;28;20293;-55
2022/07/17 01:29:56;;;;;;;4.90;2.10;;;;;;;12.98;67.79;94729.22;5048508;28;20267;-55
2022/07/17 01:32:41;;;;;;;3.27;2.23;;;;;;;13.03;67.57;94722.56;5049599;28;20277;-55
2022/07/17 01:35:25;;;;;;;3.57;2.43;;;;;;;13.13;67.12;94726.19;5054257;28;20590;-55
2022/07/17 01:38:10;;;;;;;3.47;2.50;;;;;;;13.20;66.90;94719.69;5050487;28;20221;-55
2022/07/17 01:40:54;;;;;;;2.73;2.27;;;;;;;13.17;66.88;94720.84;5042992;28;20248;-55
2022/07/17 01:43:38;;;;;;;6.47;2.13;;;;;;;13.10;66.94;94726.59;5047711;28;20251;-55
2022/07/17 01:46:22;;;;;;;2.57;2.00;;;;;;;12.86;67.75;94726.25;5047776;28;20229;-55
2022/07/17 01:49:06;;;;;;;3.27;2.17;;;;;;;12.92;67.71;94723.16;5055374;28;20229;-55
2022/07/17 01:51:50;;;;;;;3.57;2.47;;;;;;;12.95;67.71;94727.63;5050765;28;20682;-55
2022/07/17 01:54:34;;;;;;;10.43;2.60;;;;;;;12.93;67.82;94724.63;5045240;28;20216;-55
2022/07/17 01:57:18;;;;;;;4.50;2.53;;;;;;;12.91;67.88;94732.91;5050420;28;20243;-55
2022/07/17 02:00:09;;;;;;;4.93;3.30;;;;;;;12.91;67.78;94732.91;5049312;28;20291;-55
2022/07/17 02:02:53;;;;;;;4.10;2.33;;;;;;;13.00;67.55;94735.03;5043898;28;20226;-55
2022/07/17 02:05:37;;;;;;;7.80;2.63;;;;;;;12.91;67.95;94732.91;5041251;28;20858;-55
2022/07/17 02:08:21;;;;;;;5.97;2.37;;;;;;;12.88;68.02;94734.09;5052824;28;20201;-55
2022/07/17 02:11:05;;;;;;;5.70;2.87;;;;;;;12.86;68.05;94734.69;5050831;28;20296;-55
2022/07/17 02:13:49;;;;;;;4.37;2.30;;;;;;;12.80;68.29;94727.84;5047375;28;20754;-55
2022/07/17 02:16:33;;;;;;;3.70;2.10;;;;;;;12.82;68.42;94736.47;5047226;28;20279;-55
2022/07/17 02:19:17;;;;;;;3.43;2.33;;;;;;;12.81;68.40;94729.34;5053011;28;20670;-55
2022/07/17 02:22:01;;;;;;;5.53;2.33;;;;;;;12.60;69.24;94726.31;5051890;28;20232;-55
2022/07/17 02:24:45;;;;;;;4.03;2.60;;;;;;;12.53;69.66;94728.66;5051366;28;20205;-55
2022/07/17 02:27:31;;;;;;;5.60;2.37;;;;;;;12.54;69.27;94723.78;5046950;28;20206;-55
2022/07/17 02:30:17;;;;;;;2.87;2.30;;;;;;;12.48;69.63;94721.25;5052576;28;20368;-55
2022/07/17 02:33:01;;;;;;;3.07;2.40;;;;;;;12.56;69.31;94724.69;5047724;28;20201;-55
2022/07/17 02:35:45;;;;;;;4.77;2.80;;;;;;;12.59;68.77;94724.84;5054461;28;20245;-55
2022/07/17 02:38:29;;;;;;;3.37;2.37;;;;;;;12.50;69.05;94723.47;5052905;28;20244;-55
2022/07/17 02:41:13;;;;;;;5.30;2.33;;;;;;;12.38;69.41;94720.47;5048038;28;20212;-55
2022/07/17 02:43:57;;;;;;;6.90;2.37;;;;;;;12.32;69.77;94720.00;5051679;28;20212;-55
2022/07/17 02:46:41;;;;;;;5.17;2.60;;;;;;;12.33;69.99;94718.69;5053045;28;20205;-55
2022/07/17 02:49:25;;;;;;;2.93;2.40;;;;;;;12.25;69.98;94726.47;5050955;28;20209;-55
2022/07/17 02:52:09;;;;;;;3.57;2.83;;;;;;;12.20;69.95;94735.16;5049946;28;20251;-55
2022/07/17 02:54:53;;;;;;;3.70;2.60;;;;;;;12.23;69.71;94723.50;5050109;28;20279;-55
2022/07/17 02:57:38;;;;;;;4.60;2.23;;;;;;;12.13;69.83;94725.53;5046935;28;20332;-55
2022/07/17 03:00:22;;;;;;;2.63;2.20;;;;;;;12.16;70.04;94724.34;5061244;28;20746;-55
2022/07/17 03:03:07;;;;;;;3.30;2.00;;;;;;;12.21;69.51;94723.34;5050861;28;20279;-55
2022/07/17 03:05:51;;;;;;;3.67;3.07;;;;;;;12.20;69.06;94713.44;5052138;28;20264;-55
2022/07/17 03:08:34;;;;;;;5.93;2.73;;;;;;;12.24;69.14;94710.19;5052574;28;20762;-55
2022/07/17 03:11:18;;;;;;;3.70;2.50;;;;;;;12.09;69.51;94719.59;5047541;28;20201;-55
2022/07/17 03:14:02;;;;;;;3.00;2.00;;;;;;;11.92;70.61;94722.44;5050693;28;20251;-55
2022/07/17 03:16:46;;;;;;;8.63;2.37;;;;;;;11.98;70.68;94725.72;5047720;28;20690;-55
2022/07/17 03:19:30;;;;;;;6.87;2.53;;;;;;;11.98;70.60;94720.09;5052183;28;20256;-55
2022/07/17 03:22:15;;;;;;;5.53;3.00;;;;;;;12.07;70.37;94725.03;5046039;28;20277;-55
2022/07/17 03:24:59;;;;;;;6.37;2.40;;;;;;;12.12;70.13;94721.22;5048606;28;20202;-55
2022/07/17 03:27:43;;;;;;;6.37;3.33;;;;;;;12.20;69.68;94719.06;5047997;28;20208;-55
2022/07/17 03:30:27;;;;;;;6.20;3.13;;;;;;;12.29;69.31;94721.16;5049997;28;20570;-55
2022/07/17 03:33:12;;;;;;;3.63;2.67;;;;;;;12.38;68.61;94723.28;5051874;28;20228;-55
2022/07/17 03:35:56;;;;;;;5.27;2.77;;;;;;;12.44;68.33;94723.00;5046529;28;20221;-55
2022/07/17 03:38:40;;;;;;;6.63;4.57;;;;;;;12.31;68.69;94724.13;5050526;28;20197;-55
2022/07/17 03:41:24;;;;;;;4.97;2.37;;;;;;;12.27;68.81;94718.22;5055353;28;20199;-55
2022/07/17 03:44:08;;;;;;;3.53;2.23;;;;;;;12.20;69.26;94713.44;5044185;28;20236;-55
2022/07/17 03:46:52;;;;;;;6.27;2.63;;;;;;;12.31;68.94;94712.91;5047828;28;20208;-55
2022/07/17 03:49:37;;;;;;;4.47;2.47;;;;;;;12.35;68.68;94721.63;5045570;28;20348;-55
2022/07/17 03:52:21;;;;;;;3.10;2.47;;;;;;;12.42;68.41;94715.16;5040674;28;20214;-55
2022/07/17 03:55:06;;;;;;;2.67;2.10;;;;;;;12.54;67.88;94715.34;5050839;28;20228;-55
2022/07/17 03:57:50;;;;;;;2.63;2.00;;;;;;;12.50;67.80;94718.59;5051683;28;20736;-55
2022/07/17 04:00:33;;;;;;;2.97;2.23;;;;;;;12.74;67.19;94719.69;5046800;28;20690;-55
2022/07/17 04:03:17;;;;;;;2.77;2.13;;;;;;;12.82;66.64;94722.41;5051163;28;20323;-55
2022/07/17 04:06:02;;;;;;;7.10;2.20;;;;;;;12.99;66.24;94719.47;5050422;28;20305;-55
2022/07/17 04:08:46;;;;;;;2.83;2.07;;;;;;;14.34;63.13;94727.84;5053079;28;20289;-55
2022/07/17 04:11:30;;;;;;;3.50;2.30;;;;;;;16.71;55.22;94723.75;5050103;28;20736;-55
2022/07/17 04:14:14;;;;;;;2.17;1.93;;;;;;;17.56;51.76;94723.16;5044438;28;20210;-55
2022/07/17 04:16:58;;;;;;;9.33;2.07;;;;;;;19.21;48.70;94725.91;5051110;28;20206;-55
2022/07/17 04:19:42;;;;;;;1.67;1.40;;;;;;;19.65;46.45;94721.81;5050758;28;20217;-55
2022/07/17 04:22:26;;;;;;;5.83;1.70;;;;;;;20.69;44.62;94723.97;5052357;28;20670;-55
2022/07/17 04:25:10;;;;;;;5.70;1.77;;;;;;;21.36;42.96;94725.63;5048710;28;20244;-55
2022/07/17 04:27:54;;;;;;;2.10;1.90;;;;;;;21.69;41.50;94738.44;5046724;28;20233;-55
2022/07/17 04:30:38;;;;;;;2.93;1.70;;;;;;;21.96;40.92;94738.19;5050767;28;20256;-55
2022/07/17 04:33:22;;;;;;;3.60;1.50;;;;;;;22.10;40.58;94741.63;5049439;28;20201;-55
2022/07/17 04:36:06;;;;;;;2.73;1.87;;;;;;;20.05;44.31;94745.84;5050134;28;20645;-55
2022/07/17 04:38:50;;;;;;;4.60;1.80;;;;;;;18.06;50.37;94740.25;5056281;28;20259;-55
2022/07/17 04:41:34;;;;;;;3.37;1.93;;;;;;;17.56;52.01;94743.00;5043759;28;20202;-55
2022/07/17 04:44:18;;;;;;;3.13;1.87;;;;;;;17.78;51.66;94744.28;5049477;28;20225;-55
2022/07/17 04:47:02;;;;;;;2.77;1.50;;;;;;;18.10;51.10;94746.16;5050320;28;20267;-55
2022/07/17 04:49:46;;;;;;;1.77;1.67;;;;;;;18.15;50.47;94747.84;5041386;28;20256;-55
2022/07/17 04:52:30;;;;;;;5.33;1.57;;;;;;;17.96;51.39;94742.50;5051229;28;20295;-55
2022/07/17 04:55:14;;;;;;;1.70;1.60;;;;;;;18.24;50.73;94736.97;5049097;28;20650;-55
2022/07/17 04:57:58;;;;;;;3.80;1.97;;;;;;;18.27;51.16;94735.72;5047361;28;20252;-55
2022/07/17 05:00:42;;;;;;;3.47;1.80;;;;;;;18.36;51.40;94738.38;5053708;28;20678;-54
2022/07/17 05:03:26;;;;;;;2.93;1.93;;;;;;;18.42;51.68;94723.78;5049574;28;20703;-55
2022/07/17 05:06:10;;;;;;;3.27;1.70;;;;;;;18.60;51.56;94721.97;5053182;28;20205;-55
2022/07/17 05:08:54;;;;;;;2.63;2.27;;;;;;;18.70;51.70;94725.34;5047557;28;20202;-55
2022/07/17 05:11:38;;;;;;;3.30;2.13;;;;;;;18.80;51.60;94728.75;5049943;28;20260;-55
2022/07/17 05:14:22;;;;;;;2.77;1.87;;;;;;;18.84;51.01;94728.22;5044074;28;20205;-55
2022/07/17 05:17:06;;;;;;;5.37;2.40;;;;;;;18.90;50.50;94732.09;5048616;28;20279;-55
2022/07/17 05:19:50;;;;;;;2.83;1.90;;;;;;;18.96;50.76;94732.44;5040931;28;20674;-55
2022/07/17 05:22:34;;;;;;;3.20;2.17;;;;;;;19.16;50.55;94734.88;5040757;28;20210;-55
2022/07/17 05:25:18;;;;;;;4.27;1.93;;;;;;;19.28;50.83;94732.66;5049925;28;20197;-55
2022/07/17 05:28:02;;;;;;;6.23;2.33;;;;;;;19.31;50.79;94739.94;5046362;28;20204;-55
2022/07/17 05:30:46;;;;;;;5.67;2.00;;;;;;;19.34;51.19;94745.06;5048710;28;20580;-55
2022/07/17 05:33:30;;;;;;;2.83;2.13;;;;;;;19.56;50.38;94736.25;5048585;28;20205;-55
2022/07/17 05:36:14;;;;;;;4.70;2.53;;;;;;;19.39;51.42;94740.31;5047565;28;20229;-55
2022/07/17 05:38:59;;;;;;;2.63;1.70;;;;;;;19.58;51.34;94734.25;5055460;28;20233;-55
2022/07/17 05:41:43;;;;;;;9.03;1.70;;;;;;;19.86;50.02;94732.09;5049265;28;20416;-55
2022/07/17 05:44:27;;;;;;;5.10;1.80;;;;;;;19.77;51.00;94735.88;5052606;28;20268;-55
2022/07/17 05:47:10;;;;;;;3.43;2.10;;;;;;;19.94;51.10;94740.28;5054039;28;20308;-55
2022/07/17 05:49:54;;;;;;;3.53;1.80;;;;;;;20.15;50.37;94731.38;5053438;28;20575;-55
2022/07/17 05:52:38;;;;;;;2.30;2.00;;;;;;;20.24;50.73;94733.25;5051092;28;20275;-55
2022/07/17 05:55:22;;;;;;;2.60;1.87;;;;;;;20.35;49.95;94735.22;5052789;28;20268;-55
2022/07/17 05:58:07;;;;;;;1.90;1.50;;;;;;;20.43;50.72;94735.59;5051958;28;20281;-55
2022/07/17 06:00:51;;;;;;;2.73;2.33;;;;;;;20.34;47.96;94730.91;5051133;28;20206;-54
2022/07/17 06:03:35;;;;;;;1.87;1.77;;;;;;;20.58;47.56;94731.31;5053585;28;20282;-54
2022/07/17 06:06:20;;;;;;;2.57;1.93;;;;;;;20.37;47.96;94735.28;5053075;28;20236;-55
2022/07/17 06:09:05;;;;;;;3.83;1.70;;;;;;;20.62;47.02;94731.47;5052055;28;20197;-54
2022/07/17 06:11:48;;;;;;;2.20;1.97;;;;;;;20.85;46.31;94738.97;5051471;28;20253;-55
2022/07/17 06:14:33;;;;;;;5.23;1.67;;;;;;;20.99;45.30;94742.44;5041817;28;20271;-54
2022/07/17 06:17:17;;;;;;;2.03;1.47;;;;;;;21.33;45.32;94738.31;5048626;28;20201;-54
2022/07/17 06:20:01;;;;;;;3.40;1.70;;;;;;;21.68;43.28;94748.38;5047430;28;20213;-54
2022/07/17 06:22:45;;;;;;;2.40;1.60;;;;;;;21.64;42.77;94742.50;5043957;28;20263;-54
2022/07/17 06:25:30;;;;;;;2.03;1.60;;;;;;;21.70;42.81;94748.47;5047969;28;20555;-54
2022/07/17 06:28:14;;;;;;;2.10;1.67;;;;;;;21.99;42.11;94747.56;5042509;28;20602;-54
2022/07/17 06:30:58;;;;;;;2.58;1.60;;;;;;;21.89;42.16;94750.72;5053399;28;20588;-54
2022/07/17 06:33:42;;;;;;;2.60;1.52;;;;;;;22.09;41.12;94759.41;5053546;28;20196;-54
2022/07/17 06:36:26;;;;;;;3.85;1.60;;;;;;;21.96;41.83;94752.47;5044060;28;20221;-54
2022/07/17 06:39:10;;;;;;;2.60;1.70;;;;;;;21.76;41.32;94755.16;5047585;28;20213;-55
2022/07/17 06:41:54;;;;;;;5.85;1.63;;;;;;;21.74;42.10;94757.19;5052378;28;20297;-54
2022/07/17 06:44:39;;;;;;;3.03;1.90;;;;;;;21.68;41.86;94765.47;5048677;28;20274;-54
2022/07/17 06:47:23;;;;;;;3.03;1.85;;;;;;;21.54;42.09;94762.03;5041081;28;20278;-54
2022/07/17 06:50:08;;;;;;;2.75;1.80;;;;;;;21.76;42.76;94760.13;5050222;28;20286;-54
2022/07/17 06:52:52;;;;;;;3.85;1.88;;;;;;;22.02;42.29;94758.44;5050585;28;20682;-54
2022/07/17 06:55:36;;;;;;;5.07;1.45;;;;;;;21.92;41.39;94760.81;5052003;28;20303;-54
2022/07/17 06:58:20;;;;;;;2.83;1.60;;;;;;;21.85;40.26;94759.09;5048108;28;20205;-54
2022/07/17 07:01:04;;;;;;;2.80;1.70;;;;;;;21.75;40.81;94764.38;5052531;28;20201;-54
2022/07/17 07:03:49;;;;;;;2.83;1.60;;;;;;;22.29;40.33;94768.81;5052505;28;20221;-54
2022/07/17 07:06:33;;;;;;;3.38;1.83;;;;;;;22.47;39.66;94763.09;5050222;28;20252;-54
2022/07/17 07:09:17;;;;;;;4.80;1.98;;;;;;;22.34;40.67;94764.00;5048488;28;20572;-54
2022/07/17 07:12:02;;;;;;;5.50;1.48;;;;;;;22.93;39.78;94770.69;5052091;28;20286;-54
2022/07/17 07:14:46;;;;;;;4.60;1.63;;;;;;;22.87;39.26;94767.59;5047406;28;20252;-54
2022/07/17 07:17:31;;;;;;;2.58;1.60;;;;;;;23.15;40.36;94778.63;5052559;28;20236;-54
2022/07/17 07:20:15;;;;;;;5.25;1.88;;;;;;;23.00;39.84;94774.50;5049542;28;20209;-54
2022/07/17 07:22:59;;;;;;;1.60;1.50;;;;;;;23.41;39.01;94773.88;5046427;28;20678;-54
2022/07/17 07:25:44;;;;;;;4.70;1.55;;;;;;;23.08;39.02;94774.81;5050920;28;20259;-54
2022/07/17 07:28:28;;;;;;;3.88;1.50;;;;;;;23.32;38.14;94777.84;5046124;28;20616;-54
2022/07/17 07:31:13;;;;;;;2.17;1.52;;;;;;;23.01;37.92;94778.84;5050482;28;20312;-54
2022/07/17 07:33:57;;;;;;;1.70;1.48;;;;;;;22.88;37.34;94774.78;5049512;28;20729;-54
2022/07/17 07:36:41;;;;;;;2.17;1.80;;;;;;;23.17;38.23;94770.13;5049831;28;20310;-54
2022/07/17 07:39:25;;;;;;;2.92;1.60;;;;;;;23.05;37.05;94766.81;5051733;28;20193;-54
2022/07/17 07:42:09;;;;;;;6.55;1.92;;;;;;;23.18;38.13;94768.75;5046231;28;20197;-54
2022/07/17 07:44:53;;;;;;;2.58;1.63;;;;;;;23.28;37.21;94767.00;5045225;28;20233;-54
2022/07/17 07:47:44;;;;;;;3.42;1.40;;;;;;;23.91;37.81;94762.81;5046316;28;20278;-54
2022/07/17 07:50:28;;;;;;;4.55;1.70;;;;;;;23.86;36.77;94766.94;5051033;28;20580;-54
2022/07/17 07:53:12;;;;;;;2.25;1.83;;;;;;;24.00;36.74;94764.56;5048598;28;20540;-54
2022/07/17 07:55:57;;;;;;;6.80;2.10;;;;;;;24.65;36.80;94769.59;5051250;28;20658;-54
2022/07/17 07:58:41;;;;;;;3.50;1.95;;;;;;;24.93;36.57;94767.66;5046929;28;20232;-54
2022/07/17 08:01:26;;;;;;;3.17;2.03;;;;;;;25.09;35.39;94768.16;5039198;28;20222;-54
2022/07/17 08:04:10;;;;;;;4.32;1.92;;;;;;;25.22;35.56;94766.38;5042455;28;20213;-54
2022/07/17 08:06:55;;;;;;;8.27;2.13;;;;;;;25.03;35.20;94773.69;5040552;28;20323;-53
2022/07/17 08:09:38;;;;;;;2.60;1.73;;;;;;;25.14;34.90;94760.41;5044263;28;20229;-54
2022/07/17 08:12:23;;;;;;;3.17;1.60;;;;;;;24.94;34.92;94769.09;5040183;28;20205;-54
2022/07/17 08:15:08;;;;;;;3.10;1.63;;;;;;;24.26;34.61;94774.06;5038665;28;20225;-54
2022/07/17 08:17:52;;;;;;;4.22;1.70;;;;;;;24.90;34.67;94777.59;5043068;28;20205;-54
2022/07/17 08:20:37;;;;;;;3.42;1.40;;;;;;;24.80;33.98;94774.41;5044104;28;20198;-54
2022/07/17 08:23:21;;;;;;;2.67;1.63;;;;;;;24.82;33.94;94780.16;5048054;28;20250;-54
2022/07/17 08:26:05;;;;;;;2.13;1.70;;;;;;;24.78;34.14;94775.06;5050163;28;20295;-54
2022/07/17 08:28:50;;;;;;;1.85;1.70;;;;;;;25.38;34.90;94779.06;5051537;28;20197;-54
2022/07/17 08:31:34;;;;;;;2.90;1.38;;;;;;;25.27;32.62;94783.03;5050490;28;20332;-54
2022/07/17 08:34:18;;;;;;;4.10;1.83;;;;;;;24.90;34.96;94786.94;5051101;28;20193;-54
2022/07/17 08:37:02;;;;;;;2.72;1.90;;;;;;;24.66;32.79;94791.13;5050276;28;20221;-54
2022/07/17 08:39:46;;;;;;;1.65;1.33;;;;;;;25.06;33.68;94785.97;5050440;28;20690;-54
2022/07/17 08:42:31;;;;;;;2.85;1.52;;;;;;;25.67;32.92;94794.28;5049961;28;20233;-54
2022/07/17 08:45:16;;;;;;;3.38;1.70;;;;;;;25.83;32.72;94791.09;5048276;28;20205;-53
2022/07/17 08:48:00;;;;;;;2.25;1.50;;;;;;;25.89;31.84;94792.00;5040100;28;20261;-54
2022/07/17 08:50:46;;;;;;;2.03;1.48;;;;;;;25.99;32.89;94789.41;5045307;28;20232;-54
2022/07/17 08:53:30;;;;;;;5.18;1.67;;;;;;;26.16;31.93;94791.31;5046415;28;20208;-54
2022/07/17 08:56:14;;;;;;;1.38;1.27;;;;;;;26.16;31.27;94802.09;5050167;28;20236;-54
2022/07/17 08:58:59;;;;;;;4.50;1.60;;;;;;;25.72;32.53;94810.19;5042735;28;20210;-54
2022/07/17 09:01:43;;;;;;;1.75;1.60;;;;;;;25.81;32.43;94794.66;5041859;28;20570;-54
2022/07/17 09:04:27;;;;;;;3.03;1.67;;;;;;;26.21;32.82;94797.16;5044908;28;20245;-54
2022/07/17 09:07:11;;;;;;;3.05;1.60;;;;;;;26.06;31.31;94798.91;5047071;28;20244;-54
2022/07/17 09:09:56;;;;;;;2.58;1.45;;;;;;;25.61;31.79;94797.69;5048778;28;20260;-54
2022/07/17 09:12:40;;;;;;;2.40;1.50;;;;;;;26.04;32.27;94793.88;5046590;28;20295;-54
2022/07/17 09:15:24;;;;;;;1.67;1.50;;;;;;;26.17;32.32;94798.50;5047989;28;20222;-54
2022/07/17 09:18:08;;;;;;;3.00;1.60;;;;;;;25.96;33.40;94802.25;5052351;28;20205;-54
2022/07/17 09:20:55;;;;;;;3.50;1.42;;;;;;;26.72;32.03;94797.09;5050291;28;20228;-54
2022/07/17 09:23:39;;;;;;;1.65;1.48;;;;;;;26.86;30.21;94800.28;5049953;28;20205;-54
2022/07/17 09:26:23;;;;;;;4.65;1.67;;;;;;;26.84;31.27;94806.00;5053690;28;20568;-54
2022/07/17 09:29:08;;;;;;;4.38;1.77;;;;;;;26.72;31.75;94802.84;5054286;28;20263;-54
2022/07/17 09:31:52;;;;;;;3.50;1.75;;;;;;;26.73;31.74;94792.03;5045953;28;20229;-54
2022/07/17 09:34:44;;;;;;;1.95;1.52;;;;;;;26.68;30.69;94796.97;5053466;28;20205;-54
2022/07/17 09:37:30;;;;;;;2.17;1.60;;;;;;;26.87;31.02;94796.00;5053893;28;20479;-53
2022/07/17 09:43:17;;;;;;;3.72;1.70;;;;;;;26.76;30.51;94802.91;5049434;28;20575;-54
2022/07/17 09:46:01;;;;;;;2.53;1.58;;;;;;;27.06;29.76;94805.06;5051359;28;20559;-53
2022/07/17 09:48:48;;;;;;;3.70;1.77;;;;;;;26.90;30.05;94809.06;5053459;28;20224;-54
2022/07/17 09:51:38;;;;;;;2.80;1.50;;;;;;;27.07;30.66;94807.28;5049926;28;20714;-53
2022/07/17 09:54:23;;;;;;;3.50;2.08;;;;;;;27.61;30.33;94807.03;5050036;28;20363;-54
2022/07/17 09:57:07;;;;;;;2.40;1.38;;;;;;;27.94;30.02;94812.06;5047666;28;20686;-54
2022/07/17 09:59:54;;;;;;;1.88;1.75;;;;;;;27.59;29.17;94807.03;5048911;28;20299;-54
2022/07/17 10:02:45;;;;;;;7.68;1.55;;;;;;;27.30;31.82;94799.88;5052535;28;20221;-54
2022/07/17 10:05:29;;;;;;;2.22;1.42;;;;;;;27.27;30.30;94795.50;5042733;28;20619;-54
2022/07/17 10:08:14;;;;;;;5.05;1.30;;;;;;;27.76;30.93;94797.28;5054319;28;20296;-53
2022/07/17 10:10:58;;;;;;;2.88;1.70;;;;;;;27.87;29.89;94798.22;5053292;28;20221;-54
2022/07/17 10:13:45;;;;;;;3.85;1.67;;;;;;;28.08;29.62;94794.31;5048681;28;20232;-54
2022/07/17 10:16:31;;;;;;;2.35;1.65;;;;;;;27.62;29.71;94800.59;5046323;28;20217;-54
2022/07/17 10:19:16;;;;;;;3.67;1.58;;;;;;;27.49;28.61;94798.84;5053354;28;20809;-54
2022/07/17 10:22:05;;;;;;;2.58;1.88;;;;;;;28.21;29.27;94801.09;5052063;28;20210;-54
2022/07/17 10:24:54;;;;;;;4.88;1.60;;;;;;;28.58;28.75;94803.91;5046223;28;20209;-54
2022/07/17 10:27:46;;;;;;;3.72;1.63;;;;;;;27.61;29.29;94807.78;5049160;28;20201;-54
2022/07/17 10:30:31;;;;;;;3.60;1.60;;;;;;;27.26;28.96;94811.31;5048480;28;20201;-53
2022/07/17 10:33:16;;;;;;;6.10;1.50;;;;;;;27.56;28.88;94803.34;5049583;28;20202;-53
2022/07/17 10:36:00;;;;;;;7.43;1.50;;;;;;;28.18;28.96;94800.31;5049551;28;20287;-53
2022/07/17 10:38:44;;;;;;;1.98;1.50;;;;;;;27.99;28.97;94807.09;5052651;28;20209;-54
2022/07/17 10:41:28;;;;;;;2.25;1.30;;;;;;;28.32;27.91;94797.69;5049616;28;20253;-54
2022/07/17 10:44:12;;;;;;;1.75;1.33;;;;;;;28.51;27.74;94796.59;5049921;28;20200;-54
2022/07/17 10:46:56;;;;;;;4.03;1.30;;;;;;;28.36;28.50;94802.78;5052957;28;20228;-54
2022/07/17 10:49:40;;;;;;;2.47;1.50;;;;;;;27.99;29.88;94795.59;5052943;28;20271;-54
2022/07/17 10:52:24;;;;;;;4.88;1.45;;;;;;;27.54;28.48;94791.06;5043632;28;20249;-54
2022/07/17 10:55:21;;;;;;;1.73;1.23;;;;;;;27.66;28.81;94797.81;5050610;28;20256;-54
2022/07/17 10:58:25;;;;;;;3.78;1.38;;;;;;;27.78;27.90;94783.66;5052689;28;20633;-54
2022/07/17 11:01:15;;;;;;;2.42;1.35;;;;;;;28.60;28.91;94796.72;5050941;28;20248;-54
2022/07/17 11:04:01;;;;;;;2.58;1.40;;;;;;;28.45;28.71;94790.69;5052393;28;20222;-54
2022/07/17 11:06:45;;;;;;;2.85;1.40;;;;;;;28.26;29.28;94788.94;5048944;28;20209;-53
2022/07/17 11:09:31;;;;;;;4.90;1.92;;;;;;;27.89;29.62;94781.72;5048570;28;20247;-54
2022/07/17 11:12:17;;;;;;;3.50;1.63;;;;;;;27.67;28.01;94776.22;5051480;28;20257;-54
2022/07/17 11:15:02;;;;;;;4.18;1.80;;;;;;;27.94;27.03;94782.53;5050003;28;20741;-54
2022/07/17 11:17:48;;;;;;;2.92;1.50;;;;;;;28.61;26.85;94780.88;5052964;28;20201;-53
2022/07/17 11:20:32;;;;;;;4.38;1.60;;;;;;;28.86;26.84;94774.09;5046777;28;20193;-54
2022/07/17 11:23:17;;;;;;;2.63;1.60;;;;;;;29.26;25.96;94771.81;5047502;28;20197;-54
2022/07/17 11:26:04;;;;;;;1.85;1.40;;;;;;;29.36;26.98;94762.59;5051209;28;20197;-54
2022/07/17 11:28:50;;;;;;;3.97;1.50;;;;;;;29.53;27.02;94763.53;5049895;28;20197;-54
2022/07/17 11:31:35;;;;;;;7.05;2.00;;;;;;;29.71;26.83;94761.63;5045198;28;20233;-54
2022/07/17 11:34:19;;;;;;;2.45;1.40;;;;;;;29.64;26.32;94759.34;5051593;28;20224;-54
2022/07/17 11:37:06;;;;;;;1.40;1.30;;;;;;;29.65;26.62;94757.91;5051450;28;20257;-54
2022/07/17 11:39:50;;;;;;;3.42;1.60;;;;;;;29.87;26.25;94755.31;5049552;28;20255;-53
2022/07/17 11:42:34;;;;;;;4.90;1.63;;;;;;;29.91;27.42;94761.16;5046257;28;20251;-54
2022/07/17 11:45:20;;;;;;;4.40;1.60;;;;;;;29.57;26.68;94755.66;5050639;28;20247;-54
2022/07/17 11:48:05;;;;;;;4.00;1.80;;;;;;;29.61;26.67;94752.09;5051654;28;20213;-54
2022/07/17 11:50:53;;;;;;;1.50;1.40;;;;;;;29.84;26.02;94750.94;5045270;28;20201;-54
2022/07/17 11:53:40;;;;;;;2.65;1.60;;;;;;;29.60;25.92;94748.47;5046883;28;20285;-54
2022/07/17 11:56:24;;;;;;;1.67;1.27;;;;;;;29.65;26.01;94752.13;5050284;28;20271;-54
2022/07/17 11:59:09;;;;;;;1.80;1.48;;;;;;;29.56;25.68;94739.03;5051844;28;20205;-54
2022/07/17 12:01:54;;;;;;;2.13;1.30;;;;;;;29.82;25.31;94744.38;5048619;28;20579;-54
2022/07/17 12:04:50;;;;;;;2.75;1.70;;;;;;;29.95;24.30;94738.06;5046882;28;20282;-54
2022/07/17 12:08:01;;;;;;;2.08;1.55;;;;;;;30.34;24.43;94735.56;5046943;28;20290;-54
2022/07/17 12:10:47;;;;;;;1.95;1.73;;;;;;;30.41;23.31;94737.09;5040563;28;20580;-54
2022/07/17 12:13:43;;;;;;;2.17;1.40;;;;;;;30.06;24.75;94728.06;5043011;28;20202;-54
2022/07/17 12:16:29;;;;;;;7.35;1.70;;;;;;;29.83;24.68;94731.41;5047704;28;20718;-54
2022/07/17 12:19:16;;;;;;;3.58;1.33;;;;;;;29.48;23.07;94733.88;5048010;28;20719;-54
2022/07/17 12:22:02;;;;;;;3.28;1.63;;;;;;;28.98;23.80;94731.00;5050117;28;20201;-54
2022/07/17 12:24:46;;;;;;;2.15;1.70;;;;;;;29.11;23.30;94735.53;5044885;28;20259;-54
2022/07/17 12:27:30;;;;;;;1.90;1.48;;;;;;;29.32;24.10;94737.25;5046439;28;20205;-54
2022/07/17 12:30:14;;;;;;;5.05;1.70;;;;;;;29.39;22.41;94731.56;5043706;28;20241;-54
2022/07/17 12:32:58;;;;;;;1.92;1.50;;;;;;;29.21;24.74;94732.78;5049906;28;20218;-54
2022/07/17 12:35:42;;;;;;;3.80;1.50;;;;;;;29.21;24.18;94738.53;5050195;28;20302;-54
2022/07/17 12:38:26;;;;;;;1.92;1.55;;;;;;;29.51;23.81;94732.47;5042717;28;20282;-54
2022/07/17 12:41:11;;;;;;;2.72;1.50;;;;;;;29.51;22.56;94737.50;5048546;28;20185;-54
2022/07/17 12:43:55;;;;;;;1.52;1.38;;;;;;;29.69;23.72;94732.69;5043393;28;20576;-54
2022/07/17 12:46:39;;;;;;;1.92;1.23;;;;;;;29.94;24.24;94733.72;5051294;28;20201;-54
2022/07/17 12:49:25;;;;;;;4.93;1.60;;;;;;;29.62;23.78;94736.22;5049515;28;20576;-54
2022/07/17 12:52:09;;;;;;;2.65;1.45;;;;;;;29.42;23.47;94733.06;5042337;28;20306;-54
2022/07/17 12:54:53;;;;;;;5.82;1.48;;;;;;;29.63;22.86;94734.78;5045984;28;20205;-54
2022/07/17 12:57:37;;;;;;;2.78;1.33;;;;;;;29.69;23.81;94729.78;5050946;28;20276;-54
2022/07/17 13:00:21;;;;;;;2.35;1.40;;;;;;;29.35;25.35;94727.22;5049826;28;20253;-54